createdAt,value
2018-04-12T00:02:07.341Z,13.15
2018-04-12T00:04:33.668Z,14.02
2018-04-12T00:06:59.917Z,13.45
2018-04-12T00:09:26.196Z,15.45
2018-04-12T00:11:52.451Z,15.68
2018-04-12T00:14:18.723Z,15.32
2018-04-12T00:16:45.025Z,15.98
2018-04-12T00:19:12.066Z,13.95
2018-04-12T00:21:38.334Z,15.25
2018-04-12T00:24:04.646Z,16.62
2018-04-12T00:26:31.023Z,13.07
2018-04-12T00:28:57.314Z,13.98
2018-04-12T00:31:24.322Z,14.05
2018-04-12T00:33:50.607Z,15.43
2018-04-12T00:36:16.880Z,14.05
2018-04-12T00:38:43.220Z,15.48
2018-04-12T00:41:09.502Z,18.45
2018-04-12T00:43:36.125Z,15.50
2018-04-12T00:46:03.138Z,16.15
2018-04-12T00:48:29.460Z,15.15
2018-04-12T00:50:55.818Z,17.00
2018-04-12T00:53:34.309Z,16.00
2018-04-12T00:56:00.652Z,17.20
2018-04-12T00:58:26.924Z,18.67
2018-04-12T01:00:53.847Z,18.37
2018-04-12T01:03:20.197Z,19.65
2018-04-12T01:05:47.224Z,15.57
2018-04-12T01:08:14.287Z,17.50
2018-04-12T01:10:41.292Z,18.60
2018-04-12T01:13:07.580Z,16.42
2018-04-12T01:15:33.952Z,18.02
2018-04-12T01:18:00.231Z,15.60
2018-04-12T01:20:26.546Z,17.98
2018-04-12T01:22:52.893Z,19.02
2018-04-12T01:25:19.214Z,18.95
2018-04-12T01:27:46.219Z,20.98
2018-04-12T01:30:12.506Z,17.30
2018-04-12T01:32:38.803Z,16.00
2018-04-12T01:35:05.074Z,15.63
2018-04-12T01:37:31.336Z,17.85
2018-04-12T01:39:57.662Z,18.55
2018-04-12T01:42:23.961Z,17.30
2018-04-12T01:44:50.250Z,15.25
2018-04-12T01:47:16.507Z,16.08
2018-04-12T01:49:43.505Z,18.02
2018-04-12T01:52:09.802Z,16.48
2018-04-12T01:54:36.117Z,17.80
2018-04-12T01:57:02.373Z,18.02
2018-04-12T01:59:28.658Z,18.77
2018-04-12T02:01:55.658Z,16.62
2018-04-12T02:04:21.923Z,19.67
2018-04-12T02:06:48.184Z,18.10
2018-04-12T02:09:14.482Z,17.48
2018-04-12T02:11:40.741Z,16.42
2018-04-12T02:14:07.092Z,17.02
2018-04-12T02:16:33.373Z,16.98
2018-04-12T02:18:59.631Z,15.85
2018-04-12T02:21:26.635Z,16.60
2018-04-12T02:23:52.873Z,15.80
2018-04-12T02:26:19.119Z,14.57
2018-04-12T02:28:46.141Z,19.45
2018-04-12T02:31:12.388Z,17.80
2018-04-12T02:33:38.654Z,15.30
2018-04-12T02:36:04.925Z,14.93
2018-04-12T02:38:31.229Z,15.88
2018-04-12T02:40:57.475Z,18.35
2018-04-12T02:43:23.774Z,18.55
2018-04-12T02:45:50.035Z,16.60
2018-04-12T02:48:16.302Z,15.05
2018-04-12T02:50:43.316Z,16.40
2018-04-12T02:53:09.580Z,16.92
2018-04-12T02:55:36.583Z,19.83
2018-04-12T02:58:02.858Z,16.92
2018-04-12T03:00:29.892Z,17.90
2018-04-12T03:02:56.141Z,18.05
2018-04-12T03:05:23.168Z,15.93
2018-04-12T03:07:49.415Z,16.33
2018-04-12T03:10:16.439Z,15.18
2018-04-12T03:12:42.687Z,16.30
2018-04-12T03:15:09.719Z,18.08
2018-04-12T03:17:35.998Z,19.25
2018-04-12T03:22:36.254Z,17.77
2018-04-12T03:25:02.560Z,17.80
2018-04-12T03:27:28.823Z,15.98
2018-04-12T03:29:55.095Z,17.15
2018-04-12T03:32:22.111Z,20.00
2018-04-12T03:34:48.389Z,17.62
2018-04-12T03:37:14.670Z,14.32
2018-04-12T03:39:40.938Z,15.90
2018-04-12T03:42:07.996Z,16.80
2018-04-12T03:44:34.205Z,19.05
2018-04-12T03:47:01.220Z,15.13
2018-04-12T03:49:27.565Z,15.02
2018-04-12T03:51:53.779Z,14.00
2018-04-12T03:54:20.042Z,16.60
2018-04-12T03:56:47.058Z,15.35
2018-04-12T03:59:13.314Z,18.62
2018-04-12T04:01:39.598Z,17.77
2018-04-12T04:04:05.858Z,17.45
2018-04-12T04:06:32.169Z,18.55
2018-04-12T04:08:58.481Z,21.62
2018-04-12T04:11:24.754Z,16.05
2018-04-12T04:13:51.017Z,24.23
2018-04-12T04:16:29.566Z,16.87
2018-04-12T04:19:08.190Z,17.40
2018-04-12T04:21:34.458Z,16.62
2018-04-12T04:24:01.488Z,18.55
2018-04-12T04:26:27.735Z,22.90
2018-04-12T04:28:54.002Z,28.85
2018-04-12T04:31:20.254Z,34.15
2018-04-12T04:33:46.531Z,20.50
2018-04-12T04:36:13.574Z,20.70
2018-04-12T04:38:40.578Z,20.85
2018-04-12T04:41:06.822Z,23.83
2018-04-12T04:43:33.082Z,21.10
2018-04-12T04:46:00.103Z,20.55
2018-04-12T04:48:26.377Z,22.80
2018-04-12T04:50:52.666Z,23.10
2018-04-12T04:53:18.960Z,24.73
2018-04-12T04:55:45.212Z,20.52
2018-04-12T04:58:11.487Z,22.55
2018-04-12T05:00:37.759Z,21.30
2018-04-12T05:03:04.062Z,28.92
2018-04-12T05:05:30.386Z,28.17
2018-04-12T05:07:57.417Z,24.80
2018-04-12T05:10:24.474Z,27.33
2018-04-12T05:12:50.751Z,28.42
2018-04-12T05:15:17.042Z,30.15
2018-04-12T05:17:43.322Z,29.35
2018-04-12T05:20:09.612Z,32.38
2018-04-12T05:22:35.894Z,32.22
2018-04-12T05:25:02.195Z,33.58
2018-04-12T05:27:28.469Z,34.55
2018-04-12T05:29:55.526Z,35.97
2018-04-12T05:32:22.562Z,41.15
2018-04-12T05:34:48.858Z,41.75
2018-04-12T05:37:15.126Z,40.95
2018-04-12T05:39:42.142Z,43.20
2018-04-12T05:42:08.436Z,36.92
2018-04-12T05:44:34.709Z,43.00
2018-04-12T05:47:00.993Z,42.42
2018-04-12T05:49:27.273Z,41.75
2018-04-12T05:51:53.598Z,45.42
2018-04-12T05:54:19.863Z,46.95
2018-04-12T05:56:46.937Z,41.63
2018-04-12T05:59:13.255Z,40.50
2018-04-12T06:01:39.558Z,44.28
2018-04-12T06:04:06.600Z,41.78
2018-04-12T06:06:33.642Z,50.00
2018-04-12T06:08:59.968Z,49.35
2018-04-12T06:11:26.260Z,48.45
2018-04-12T06:13:52.523Z,43.20
2018-04-12T06:16:18.859Z,40.60
2018-04-12T06:18:45.186Z,48.10
2018-04-12T06:21:11.454Z,51.20
2018-04-12T06:23:37.747Z,51.30
2018-04-12T06:26:04.037Z,59.30
2018-04-12T06:28:30.394Z,50.15
2018-04-12T06:30:56.619Z,52.50
2018-04-12T06:33:22.926Z,55.67
2018-04-12T06:35:49.974Z,61.47
2018-04-12T06:38:16.302Z,57.60
2018-04-12T06:40:42.585Z,50.63
2018-04-12T06:43:08.930Z,56.50
2018-04-12T06:45:35.978Z,54.60
2018-04-12T06:48:03.020Z,55.33
2018-04-12T06:50:30.087Z,55.67
2018-04-12T06:52:56.406Z,56.15
2018-04-12T06:55:23.426Z,59.72
2018-04-12T06:57:49.695Z,46.35
2018-04-12T07:00:15.982Z,51.92
2018-04-12T07:02:42.238Z,58.22
2018-04-12T07:05:09.290Z,56.05
2018-04-12T07:07:36.307Z,53.75
2018-04-12T07:10:02.631Z,55.45
2018-04-12T07:12:28.908Z,55.42
2018-04-12T07:14:55.216Z,53.28
2018-04-12T07:17:22.235Z,64.72
2018-04-12T07:19:48.537Z,60.45
2018-04-12T07:22:15.546Z,54.63
2018-04-12T07:24:41.853Z,59.85
2018-04-12T07:27:08.925Z,55.47
2018-04-12T07:29:35.235Z,61.92
2018-04-12T07:32:02.303Z,59.33
2018-04-12T07:34:29.350Z,62.22
2018-04-12T07:36:56.407Z,66.70
2018-04-12T07:39:22.705Z,71.90
2018-04-12T07:41:48.995Z,69.45
2018-04-12T07:44:15.262Z,67.43
2018-04-12T07:46:41.551Z,68.60
2018-04-12T07:49:07.850Z,70.62
2018-04-12T07:51:34.891Z,61.28
2018-04-12T07:54:01.946Z,66.03
2018-04-12T07:56:28.992Z,58.50
2018-04-12T07:58:56.028Z,64.65
2018-04-12T08:01:22.328Z,73.33
2018-04-12T08:03:48.598Z,62.38
2018-04-12T08:06:14.886Z,70.00
2018-04-12T08:08:41.162Z,61.85
2018-04-12T08:11:08.196Z,68.77
2018-04-12T08:13:34.482Z,62.10
2018-04-12T08:16:00.793Z,56.77
2018-04-12T08:18:27.093Z,54.33
2018-04-12T08:20:53.350Z,59.53
2018-04-12T08:23:19.674Z,61.63
2018-04-12T08:25:46.713Z,58.20
2018-04-12T08:28:13.715Z,51.80
2018-04-12T08:30:39.986Z,56.20
2018-04-12T08:33:06.999Z,52.50
2018-04-12T08:35:33.273Z,55.03
2018-04-12T08:38:00.381Z,47.40
2018-04-12T08:40:26.651Z,45.80
2018-04-12T08:42:53.674Z,52.90
2018-04-12T08:45:19.950Z,46.97
2018-04-12T08:47:46.235Z,46.33
2018-04-12T08:50:12.629Z,55.50
2018-04-12T08:52:38.896Z,54.97
2018-04-12T08:55:05.230Z,44.63
2018-04-12T08:57:31.532Z,50.03
2018-04-12T08:59:57.824Z,44.10
2018-04-12T09:02:24.839Z,39.97
2018-04-12T09:04:51.861Z,39.77
2018-04-12T09:07:18.158Z,36.87
2018-04-12T09:09:44.435Z,40.43
2018-04-12T09:12:10.743Z,37.77
2018-04-12T09:14:37.247Z,41.63
2018-04-12T09:17:03.668Z,49.87
2018-04-12T09:19:30.018Z,40.80
2018-04-12T09:21:56.312Z,40.60
2018-04-12T09:24:22.586Z,40.60
2018-04-12T09:26:48.873Z,42.07
2018-04-12T09:29:15.158Z,45.27
2018-04-12T09:31:41.427Z,48.00
2018-04-12T09:34:07.690Z,45.83
2018-04-12T09:36:34.715Z,45.80
2018-04-12T09:39:01.737Z,49.33
2018-04-12T09:41:28.014Z,45.63
2018-04-12T09:43:55.038Z,38.13
2018-04-12T09:46:21.358Z,46.83
2018-04-12T09:48:47.589Z,40.30
2018-04-12T09:51:13.849Z,37.00
2018-04-12T09:53:40.133Z,35.70
2018-04-12T09:56:06.461Z,39.13
2018-04-12T09:58:32.794Z,35.60
2018-04-12T10:00:59.120Z,37.60
2018-04-12T10:03:25.386Z,44.83
2018-04-12T10:05:58.605Z,36.67
2018-04-12T10:08:27.682Z,36.43
2018-04-12T10:10:54.722Z,35.60
2018-04-12T10:13:21.791Z,46.50
2018-04-12T10:15:48.062Z,36.70
2018-04-12T10:18:14.321Z,37.33
2018-04-12T10:20:41.393Z,40.00
2018-04-12T10:23:08.408Z,40.87
2018-04-12T10:25:34.800Z,37.27
2018-04-12T10:28:01.794Z,49.83
2018-04-12T10:30:28.850Z,41.57
2018-04-12T10:32:55.930Z,45.97
2018-04-12T10:35:22.221Z,39.97
2018-04-12T10:37:48.511Z,39.00
2018-04-12T10:40:15.598Z,43.93
2018-04-12T10:42:42.623Z,40.23
2018-04-12T10:45:08.950Z,39.40
2018-04-12T10:47:35.228Z,39.03
2018-04-12T10:50:02.268Z,38.17
2018-04-12T10:52:29.306Z,35.23
2018-04-12T10:54:57.168Z,40.03
2018-04-12T10:57:24.241Z,33.50
2018-04-12T10:59:51.294Z,36.87
2018-04-12T11:02:17.602Z,41.60
2018-04-12T11:04:44.640Z,38.50
2018-04-12T11:07:11.675Z,39.80
2018-04-12T11:09:37.960Z,36.77
2018-04-12T11:12:04.251Z,34.83
2018-04-12T11:14:30.513Z,38.20
2018-04-12T11:16:56.781Z,39.70
2018-04-12T11:19:23.118Z,37.57
2018-04-12T11:21:49.414Z,36.40
2018-04-12T11:24:15.708Z,36.13
2018-04-12T11:26:42.806Z,38.60
2018-04-12T11:29:09.102Z,40.57
2018-04-12T11:31:36.153Z,34.77
2018-04-12T11:34:03.163Z,38.70
2018-04-12T11:36:29.440Z,40.20
2018-04-12T11:38:55.712Z,40.53
2018-04-12T11:41:22.076Z,44.00
2018-04-12T11:43:49.273Z,38.60
2018-04-12T11:46:15.558Z,38.87
2018-04-12T11:48:42.641Z,40.50
2018-04-12T11:51:08.905Z,32.73
2018-04-12T11:53:35.222Z,41.20
2018-04-12T11:56:01.470Z,38.03
2018-04-12T11:58:27.773Z,32.30
2018-04-12T12:00:54.084Z,36.47
2018-04-12T12:03:20.386Z,33.03
2018-04-12T12:05:47.442Z,33.83
2018-04-12T12:08:14.560Z,34.03
2018-04-12T12:10:40.942Z,37.63
2018-04-12T12:13:07.335Z,39.30
2018-04-12T12:15:34.459Z,34.00
2018-04-12T12:18:00.792Z,44.70
2018-04-12T12:20:27.058Z,32.43
2018-04-12T12:22:53.363Z,33.17
2018-04-12T12:25:19.634Z,30.67
2018-04-12T12:27:46.707Z,29.10
2018-04-12T12:30:12.998Z,28.20
2018-04-12T12:32:40.014Z,37.17
2018-04-12T12:35:06.322Z,32.57
2018-04-12T12:37:32.602Z,29.10
2018-04-12T12:39:58.906Z,25.83
2018-04-12T12:42:25.174Z,30.83
2018-04-12T12:44:52.222Z,28.57
2018-04-12T12:47:19.279Z,30.00
2018-04-12T12:49:45.558Z,29.57
2018-04-12T12:52:12.617Z,30.60
2018-04-12T12:54:38.913Z,29.27
2018-04-12T12:57:05.192Z,34.67
2018-04-12T12:59:32.214Z,26.63
2018-04-12T13:01:59.336Z,31.40
2018-04-12T13:04:25.676Z,29.23
2018-04-12T13:06:51.944Z,28.87
2018-04-12T13:09:18.271Z,29.50
2018-04-12T13:11:44.542Z,28.20
2018-04-12T13:14:10.831Z,27.77
2018-04-12T13:16:37.137Z,26.60
2018-04-12T13:19:03.495Z,23.57
2018-04-12T13:21:29.738Z,31.67
2018-04-12T13:23:56.812Z,28.43
2018-04-12T13:26:23.190Z,26.10
2018-04-12T13:28:49.462Z,26.00
2018-04-12T13:31:15.779Z,33.37
2018-04-12T13:33:42.808Z,32.43
2018-04-12T13:36:09.913Z,26.93
2018-04-12T13:38:36.205Z,34.60
2018-04-12T13:41:03.355Z,27.97
2018-04-12T13:43:30.392Z,27.20
2018-04-12T13:45:56.673Z,31.40
2018-04-12T13:48:22.974Z,23.93
2018-04-12T13:50:49.995Z,27.27
2018-04-12T13:53:16.266Z,29.27
2018-04-12T13:55:42.691Z,26.83
2018-04-12T13:58:08.954Z,28.67
2018-04-12T14:00:35.267Z,27.50
2018-04-12T14:03:01.538Z,29.13
2018-04-12T14:05:27.825Z,23.93
2018-04-12T14:07:54.101Z,22.53
2018-04-12T14:10:20.350Z,29.93
2018-04-12T14:12:47.405Z,24.67
2018-04-12T14:15:14.438Z,27.73
2018-04-12T14:17:41.506Z,22.00
2018-04-12T14:20:07.803Z,25.73
2018-04-12T14:22:34.088Z,24.63
2018-04-12T14:25:00.441Z,23.53
2018-04-12T14:27:26.715Z,23.10
2018-04-12T14:29:53.759Z,23.87
2018-04-12T14:32:20.782Z,24.10
2018-04-12T14:34:47.056Z,20.10
2018-04-12T14:37:14.046Z,21.43
2018-04-12T14:39:40.289Z,21.17
2018-04-12T14:42:06.621Z,20.80
2018-04-12T14:44:32.903Z,23.33
2018-04-12T14:46:59.195Z,24.00
2018-04-12T14:49:25.499Z,19.63
2018-04-12T14:51:51.790Z,27.53
2018-04-12T14:54:19.227Z,21.13
2018-04-12T14:56:45.130Z,24.77
2018-04-12T14:59:11.438Z,18.30
2018-04-12T15:01:37.709Z,25.43
2018-04-12T15:04:04.772Z,18.70
2018-04-12T15:06:31.134Z,19.57
2018-04-12T15:08:57.398Z,15.90
2018-04-12T15:11:23.663Z,18.47
2018-04-12T15:13:49.918Z,14.67
2018-04-12T15:16:16.233Z,15.33
2018-04-12T15:18:42.567Z,18.73
2018-04-12T15:21:08.839Z,16.77
2018-04-12T15:23:35.133Z,17.50
2018-04-12T15:26:01.419Z,15.20
2018-04-12T15:28:28.523Z,13.70
2018-04-12T15:30:54.827Z,15.50
2018-04-12T15:33:21.106Z,16.70
2018-04-12T15:35:48.166Z,18.47
2018-04-12T15:38:14.527Z,21.03
2018-04-12T15:40:40.864Z,14.20
2018-04-12T15:43:07.138Z,15.17
2018-04-12T15:45:33.426Z,15.53
2018-04-12T15:47:59.726Z,17.90
2018-04-12T15:50:26.093Z,15.33
2018-04-12T15:52:52.374Z,15.50
2018-04-12T15:55:18.714Z,16.13
2018-04-12T15:57:44.987Z,12.63
2018-04-12T16:00:11.295Z,15.80
2018-04-12T16:02:37.590Z,13.83
2018-04-12T16:05:03.882Z,14.63
2018-04-12T16:07:30.187Z,15.50
2018-04-12T16:09:57.181Z,12.43
2018-04-12T16:12:23.470Z,13.50
2018-04-12T16:14:49.799Z,14.50
2018-04-12T16:17:16.110Z,13.13
2018-04-12T16:19:43.967Z,11.67
2018-04-12T16:22:10.999Z,14.77
2018-04-12T16:24:37.302Z,12.67
2018-04-12T16:27:03.603Z,13.03
2018-04-12T16:29:30.630Z,23.00
2018-04-12T16:31:57.684Z,13.80
2018-04-12T16:34:23.931Z,18.33
2018-04-12T16:36:50.234Z,14.93
2018-04-12T16:39:16.522Z,12.17
2018-04-12T16:41:42.833Z,14.10
2018-04-12T16:44:09.090Z,12.93
2018-04-12T16:46:35.389Z,14.90
2018-04-12T16:49:01.696Z,14.00
2018-04-12T16:51:28.830Z,13.27
2018-04-12T16:53:55.925Z,11.70
2018-04-12T16:56:23.008Z,17.43
2018-04-12T16:58:49.280Z,13.00
2018-04-12T17:01:16.286Z,12.50
2018-04-12T17:03:42.573Z,17.80
2018-04-12T17:06:08.866Z,15.50
2018-04-12T17:08:35.886Z,14.83
2018-04-12T17:11:02.960Z,15.20
2018-04-12T17:13:30.018Z,13.97
2018-04-12T17:15:56.306Z,14.83
2018-04-12T17:18:22.608Z,21.00
2018-04-12T17:20:48.907Z,16.63
2018-04-12T17:23:15.193Z,18.03
2018-04-12T17:25:41.472Z,17.30
2018-04-12T17:28:07.774Z,19.27
2018-04-12T17:30:34.041Z,18.50
2018-04-12T17:33:01.078Z,18.30
2018-04-12T17:35:28.102Z,16.47
2018-04-12T17:37:55.179Z,18.40
2018-04-12T17:40:22.265Z,17.97
2018-04-12T17:42:48.567Z,16.40
2018-04-12T17:45:15.592Z,15.33
2018-04-12T17:47:41.874Z,17.50
2018-04-12T17:50:08.187Z,16.03
2018-04-12T17:52:34.458Z,16.03
2018-04-12T17:55:00.730Z,17.57
2018-04-12T17:57:27.756Z,21.70
2018-04-12T17:59:54.773Z,14.10
2018-04-12T18:02:21.140Z,16.00
2018-04-12T18:04:47.423Z,15.10
2018-04-12T18:07:13.737Z,21.13
2018-04-12T18:09:40.748Z,15.07
2018-04-12T18:12:07.003Z,16.53
2018-04-12T18:14:33.288Z,17.80
2018-04-12T18:16:59.558Z,18.30
2018-04-12T18:19:25.924Z,17.17
2018-04-12T18:21:52.213Z,17.30
2018-04-12T18:24:19.230Z,19.00
2018-04-12T18:26:45.558Z,16.30
2018-04-12T18:29:11.830Z,15.00
2018-04-12T18:31:38.142Z,14.33
2018-04-12T18:34:05.157Z,13.53
2018-04-12T18:36:31.519Z,11.90
2018-04-12T18:38:57.777Z,13.87
2018-04-12T18:41:24.053Z,14.90
2018-04-12T18:43:50.330Z,13.00
2018-04-12T18:46:17.356Z,11.07
2018-04-12T18:48:43.636Z,11.23
2018-04-12T18:51:09.911Z,13.80
2018-04-12T18:53:36.197Z,10.20
2018-04-12T18:56:02.538Z,12.63
2018-04-12T18:58:28.905Z,10.10
2018-04-12T19:00:55.938Z,11.70
2018-04-12T19:03:22.221Z,10.57
2018-04-12T19:05:48.846Z,13.00
2018-04-12T19:08:15.141Z,9.03
2018-04-12T19:10:41.397Z,11.73
2018-04-12T19:13:08.430Z,9.90
2018-04-12T19:15:35.451Z,10.07
2018-04-12T19:18:01.807Z,10.40
2018-04-12T19:20:28.086Z,11.93
2018-04-12T19:22:54.355Z,10.63
2018-04-12T19:25:20.649Z,11.97
2018-04-12T19:27:46.944Z,12.23
2018-04-12T19:30:13.239Z,16.27
2018-04-12T19:32:39.536Z,15.00
2018-04-12T19:35:07.027Z,12.77
2018-04-12T19:37:33.306Z,13.10
2018-04-12T19:39:59.610Z,13.10
2018-04-12T19:42:25.963Z,13.30
2018-04-12T19:44:52.290Z,16.27
2018-04-12T19:47:18.642Z,13.83
2018-04-12T19:49:44.947Z,12.40
2018-04-12T19:52:11.259Z,13.20
2018-04-12T19:54:38.369Z,16.13
2018-04-12T19:57:04.661Z,13.60
2018-04-12T19:59:30.954Z,13.47
2018-04-12T20:01:57.247Z,13.97
2018-04-12T20:04:23.542Z,14.80
2018-04-12T20:06:50.550Z,14.20
2018-04-12T20:09:16.886Z,15.83
2018-04-12T20:11:43.225Z,16.37
2018-04-12T20:14:09.501Z,14.47
2018-04-12T20:16:35.816Z,17.13
2018-04-12T20:19:02.858Z,19.83
2018-04-12T20:21:29.957Z,20.47
2018-04-12T20:23:56.330Z,19.13
2018-04-12T20:26:22.598Z,16.43
2018-04-12T20:28:48.921Z,16.70
2018-04-12T20:31:15.279Z,23.20
2018-04-12T20:33:41.637Z,21.17
2018-04-12T20:36:07.952Z,19.00
2018-04-12T20:38:34.248Z,18.80
2018-04-12T20:41:00.540Z,20.17
2018-04-12T20:43:27.474Z,17.43
2018-04-12T20:45:53.755Z,21.47
2018-04-12T20:48:20.041Z,17.13
2018-04-12T20:50:46.324Z,17.03
2018-04-12T20:53:12.679Z,21.00
2018-04-12T20:55:38.996Z,19.60
2018-04-12T20:58:05.307Z,22.63
2018-04-12T21:00:31.595Z,19.40
2018-04-12T21:02:57.915Z,20.27
2018-04-12T21:05:24.165Z,33.47
2018-04-12T21:07:50.439Z,20.77
2018-04-12T21:10:16.719Z,25.33
2018-04-12T21:12:43.053Z,21.53
2018-04-12T21:15:09.389Z,29.33
2018-04-12T21:17:35.820Z,39.30
2018-04-12T21:20:02.930Z,49.47
2018-04-12T21:22:29.199Z,40.10
2018-04-12T21:24:56.232Z,45.13
2018-04-12T21:27:23.261Z,27.07
2018-04-12T21:29:49.539Z,27.30
2018-04-12T21:32:15.865Z,27.20
2018-04-12T21:34:42.846Z,29.00
2018-04-12T21:37:09.126Z,26.50
2018-04-12T21:39:35.398Z,25.20
2018-04-12T21:42:01.729Z,22.93
2018-04-12T21:44:27.982Z,30.23
2018-04-12T21:46:54.262Z,32.07
2018-04-12T21:49:21.277Z,22.47
2018-04-12T21:51:47.554Z,24.10
2018-04-12T21:54:13.848Z,23.00
2018-04-12T21:56:40.237Z,22.47
2018-04-12T21:59:06.506Z,28.63
2018-04-12T22:01:32.782Z,23.43
2018-04-12T22:03:59.102Z,27.67
2018-04-12T22:06:25.416Z,25.60
2018-04-12T22:08:51.704Z,20.57
2018-04-12T22:11:17.983Z,28.23
2018-04-12T22:13:45.038Z,25.60
2018-04-12T22:16:11.379Z,29.47
2018-04-12T22:18:37.676Z,30.80
2018-04-12T22:21:03.981Z,40.13
2018-04-12T22:23:30.252Z,111.67
2018-04-12T22:25:57.266Z,27.67
2018-04-12T22:28:23.540Z,39.27
2018-04-12T22:30:49.801Z,124.50
2018-04-12T22:33:16.073Z,102.63
2018-04-12T22:35:42.325Z,32.83
2018-04-12T22:38:09.370Z,29.30
2018-04-12T22:40:36.410Z,36.53
2018-04-12T22:43:02.671Z,31.80
2018-04-12T22:45:28.962Z,27.77
2018-04-12T22:47:55.210Z,25.80
2018-04-12T22:50:21.553Z,26.17
2018-04-12T22:52:47.830Z,30.20
2018-04-12T22:55:14.107Z,28.80
2018-04-12T22:57:40.403Z,30.77
2018-04-12T23:00:06.694Z,25.90
2018-04-12T23:02:32.992Z,26.83
2018-04-12T23:05:00.002Z,28.07
2018-04-12T23:07:26.270Z,25.17
2018-04-12T23:09:52.537Z,34.23
2018-04-12T23:12:18.797Z,27.90
2018-04-12T23:14:45.055Z,29.97
2018-04-12T23:17:11.330Z,42.57
2018-04-12T23:19:37.621Z,31.83
2018-04-12T23:22:03.893Z,33.97
2018-04-12T23:24:30.149Z,34.03
2018-04-12T23:26:56.435Z,31.90
2018-04-12T23:29:22.694Z,34.03
2018-04-12T23:31:48.989Z,41.43
2018-04-12T23:34:15.246Z,31.97
2018-04-12T23:36:41.533Z,28.77
2018-04-12T23:39:07.829Z,26.02
2018-04-12T23:41:34.105Z,31.13
2018-04-12T23:44:00.395Z,29.83
2018-04-12T23:46:27.426Z,25.65
2018-04-12T23:48:53.749Z,26.90
2018-04-12T23:51:20.024Z,37.72
2018-04-12T23:53:46.265Z,25.88
2018-04-12T23:56:12.554Z,27.83
2018-04-12T23:58:38.838Z,24.42
